KART/ART METAR and TAF weather

Enter ICAO airport designator
Station Type Date Time Source
KART METAR 2024/02/26 16:56 UTC NOAA

KART 261656Z AUTO 26008KT 10SM OVC055 06/M01 A2995 RMK AO2 SLP144 T00611006


Station Type Date Time Source
KART Decoded METAR 2024/02/26 16:56 UTC NOAA

WATERTOWN INTERNATIONAL AIRPORT, NY, United States (KART) 43-59N 076-02W 100M
Feb 26, 2024 - 11:56 AM EST / 2024.02.26 1656 UTC
Wind: from the W (260 degrees) at 9 MPH (8 KT):0
Visibility: 10 mile(s):0
Sky conditions: overcast
Temperature: 43.0 F (6.1 C)
Dew Point: 30.9 F (-0.6 C)
Relative Humidity: 62%
Pressure (altimeter): 29.95 in. Hg (1014 hPa)
ob: KART 261656Z AUTO 26008KT 10SM OVC055 06/M01 A2995 RMK AO2 SLP144 T00611006
cycle: 17

Station Type Date Time Source
KART TAF 2024/02/26 18:33 UTC NOAA